Time;durP1;ratioP1;P1;durP2;ratioP2;P2;SDS_P1;SDS_P2;PMS_P1;PMS_P2;Temp;Humidity;BMP_temperature;BMP_pressure;BME280_temperature;BME280_humidity;BME280_pressure;Samples;Min_cycle;Max_cycle;Signal;HPM_P1;HPM_P2
2023/05/16 00:00:30;;;;;;;10.52;7.88;;;15.50;99.90;;;;;;4857419;29;20058;-76
2023/05/16 00:03:25;;;;;;;13.68;8.20;;;15.30;99.90;;;;;;4871989;29;20046;-78
2023/05/16 00:06:17;;;;;;;;;;;15.40;99.90;;;;;;4870327;29;20057;-80
2023/05/16 00:09:03;;;;;;;10.77;7.43;;;15.60;99.90;;;;;;4867494;29;19928;-73
2023/05/16 00:12:03;;;;;;;11.15;8.02;;;15.80;99.90;;;;;;4846785;29;20065;-76
2023/05/16 00:14:44;;;;;;;11.77;8.10;;;15.40;99.90;;;;;;4837108;29;20062;-79
2023/05/16 00:18:08;;;;;;;11.93;8.43;;;15.40;99.90;;;;;;4865544;29;20046;-77
2023/05/16 00:21:56;;;;;;;12.48;8.52;;;15.40;99.90;;;;;;4855141;29;20276;-77
2023/05/16 00:25:08;;;;;;;10.63;7.70;;;15.40;99.90;;;;;;4831374;29;20050;-75
2023/05/16 00:28:30;;;;;;;11.20;8.18;;;15.60;99.90;;;;;;4846621;29;20060;-75
2023/05/16 00:31:14;;;;;;;13.82;8.40;;;15.70;99.90;;;;;;4835314;29;20061;-79
2023/05/16 00:33:52;;;;;;;12.52;8.02;;;15.70;99.90;;;;;;4854963;29;20085;-79
2023/05/16 00:39:35;;;;;;;14.23;8.63;;;15.80;99.90;;;;;;4851713;29;20101;-76
2023/05/16 00:42:31;;;;;;;18.00;8.20;;;15.80;99.90;;;;;;4858899;29;20109;-75
2023/05/16 00:45:05;;;;;;;11.75;8.07;;;15.60;99.90;;;;;;4848481;29;20049;-75
2023/05/16 00:48:04;;;;;;;12.45;8.52;;;15.30;99.90;;;;;;4849627;29;20061;-76
2023/05/16 00:50:52;;;;;;;15.35;8.20;;;15.50;99.90;;;;;;4864995;29;20061;-76
2023/05/16 00:53:35;;;;;;;16.17;8.93;;;15.60;99.90;;;;;;4840878;29;20077;-78
2023/05/16 00:56:05;;;;;;;11.30;7.45;;;15.60;99.90;;;;;;4865700;29;20049;-76
2023/05/16 00:58:32;;;;;;;11.70;7.57;;;15.70;99.90;;;;;;4873890;29;20060;-79
2023/05/16 01:01:20;;;;;;;15.68;8.00;;;15.60;99.90;;;;;;4869947;29;20053;-76
2023/05/16 01:04:31;;;;;;;10.38;7.57;;;15.60;99.90;;;;;;4832309;29;20050;-74
2023/05/16 01:07:08;;;;;;;13.77;8.05;;;15.70;99.90;;;;;;4875304;29;20057;-74
2023/05/16 01:10:00;;;;;;;12.75;7.93;;;15.70;99.90;;;;;;4840783;29;20053;-77
2023/05/16 01:13:10;;;;;;;11.18;7.50;;;15.70;99.90;;;;;;4851584;29;20042;-74
2023/05/16 01:16:25;;;;;;;12.25;8.25;;;15.60;99.90;;;;;;4867692;29;20057;-75
2023/05/16 01:19:48;;;;;;;18.83;8.10;;;15.10;99.90;;;;;;4835012;29;20053;-72
2023/05/16 01:22:44;;;;;;;13.80;7.65;;;15.00;99.90;;;;;;4840513;29;20066;-78
2023/05/16 01:29:41;;;;;;;12.63;7.97;;;15.30;99.90;;;;;;4865162;29;20048;-78
2023/05/16 01:32:50;;;;;;;10.57;7.70;;;15.50;99.90;;;;;;4870821;29;20055;-76
2023/05/16 01:39:41;;;;;;;14.00;8.35;;;15.70;99.90;;;;;;4849970;29;20054;-75
2023/05/16 01:42:31;;;;;;;12.95;8.45;;;15.50;99.90;;;;;;4847277;29;20406;-77
2023/05/16 01:45:30;;;;;;;12.93;8.38;;;15.50;99.90;;;;;;4829818;29;20116;-79
2023/05/16 01:48:26;;;;;;;12.57;8.15;;;15.60;99.90;;;;;;4865945;29;20050;-75
2023/05/16 01:51:13;;;;;;;16.20;8.20;;;15.40;99.90;;;;;;4856309;29;20114;-74
2023/05/16 01:54:33;;;;;;;;;;;;;;;;;;;;;
2023/05/16 01:57:41;;;;;;;13.70;7.70;;;15.50;99.90;;;;;;4861405;29;20113;-81
2023/05/16 02:01:10;;;;;;;10.95;7.80;;;15.40;99.90;;;;;;4830218;29;20130;-73
2023/05/16 02:04:14;;;;;;;11.88;8.43;;;15.30;99.90;;;;;;4840839;29;20046;-72
2023/05/16 02:08:03;;;;;;;12.18;7.35;;;15.50;99.90;;;;;;4802050;29;20266;-80
2023/05/16 02:11:03;;;;;;;13.70;7.43;;;15.60;99.90;;;;;;4804723;29;20543;-73
2023/05/16 02:14:00;;;;;;;10.43;7.72;;;15.50;99.90;;;;;;4819937;29;20222;-81
2023/05/16 02:17:09;;;;;;;11.05;8.10;;;15.50;99.90;;;;;;4578628;27;20044;-80
2023/05/16 02:20:22;;;;;;;13.50;7.88;;;15.50;99.90;;;;;;4894859;29;20095;-82
2023/05/16 02:23:27;;;;;;;;;;;;;;;;;;;;;
2023/05/16 02:26:03;;;;;;;14.60;7.90;;;15.50;99.90;;;;;;4882879;29;20053;-81
2023/05/16 02:28:48;;;;;;;11.88;8.52;;;15.30;99.90;;;;;;4868533;29;20458;-80
2023/05/16 02:31:31;;;;;;;11.18;8.20;;;15.20;99.90;;;;;;4843999;29;20155;-77
2023/05/16 02:34:00;;;;;;;13.48;7.63;;;14.90;99.90;;;;;;4871171;29;20046;-76
2023/05/16 02:36:40;;;;;;;13.30;8.73;;;14.80;99.90;;;;;;4873148;29;20072;-74
2023/05/16 02:39:45;;;;;;;13.32;8.18;;;15.00;99.90;;;;;;4857641;29;20055;-73
2023/05/16 02:43:05;;;;;;;13.50;8.95;;;15.20;99.90;;;;;;4853112;29;20053;-73
2023/05/16 02:46:38;;;;;;;12.70;8.27;;;15.30;99.90;;;;;;4851478;29;20089;-74
2023/05/16 02:49:16;;;;;;;13.18;8.48;;;15.40;99.90;;;;;;4864064;29;20068;-74
2023/05/16 02:52:39;;;;;;;16.55;8.98;;;15.40;99.90;;;;;;4339264;28;19789923;-79
2023/05/16 02:56:05;;;;;;;11.32;8.23;;;15.40;99.90;;;;;;5083921;28;20042;-78
2023/05/16 02:58:47;;;;;;;14.98;9.60;;;15.50;99.90;;;;;;5001120;28;20068;-73
2023/05/16 03:01:24;;;;;;;10.68;8.65;;;15.50;99.90;;;;;;5004798;28;20106;-74
2023/05/16 03:03:58;;;;;;;12.30;8.95;;;15.50;99.90;;;;;;4988346;28;20039;-73
2023/05/16 03:06:40;;;;;;;10.77;7.30;;;15.50;99.90;;;;;;5016410;28;20061;-73
2023/05/16 03:13:22;;;;;;;15.90;7.93;;;15.50;99.90;;;;;;5043084;28;20044;-78
2023/05/16 03:16:10;;;;;;;13.38;8.00;;;15.50;99.90;;;;;;4970303;28;20129;-80
2023/05/16 03:18:52;;;;;;;11.98;8.35;;;15.40;99.90;;;;;;4998528;28;20144;-73
2023/05/16 03:21:36;;;;;;;12.05;8.40;;;15.40;99.90;;;;;;5023153;28;20046;-75
2023/05/16 03:24:57;;;;;;;14.50;8.40;;;15.30;99.90;;;;;;5029430;28;20061;-81
2023/05/16 03:27:50;;;;;;;13.02;8.52;;;15.20;99.90;;;;;;5024213;28;20467;-77
2023/05/16 03:30:27;;;;;;;11.98;7.70;;;15.20;99.90;;;;;;5030618;28;20046;-78
2023/05/16 03:32:55;;;;;;;13.18;8.35;;;15.30;99.90;;;;;;5034232;28;20046;-77
2023/05/16 03:35:30;;;;;;;13.13;7.97;;;15.30;99.90;;;;;;5038263;28;20042;-82
2023/05/16 03:37:58;;;;;;;18.00;8.38;;;15.40;99.90;;;;;;5039144;28;20046;-80
2023/05/16 03:40:38;;;;;;;12.82;8.32;;;15.30;99.90;;;;;;5036411;28;20045;-77
2023/05/16 03:43:36;;;;;;;15.75;8.93;;;15.30;99.90;;;;;;5035132;28;20045;-75
2023/05/16 03:46:14;;;;;;;12.17;8.97;;;15.30;99.90;;;;;;5033311;28;20069;-79
2023/05/16 03:49:05;;;;;;;11.98;8.05;;;15.30;99.90;;;;;;5039521;28;20044;-73
2023/05/16 03:51:51;;;;;;;13.23;8.48;;;15.40;99.90;;;;;;5019231;28;20042;-76
2023/05/16 03:54:37;;;;;;;14.32;10.02;;;15.30;99.90;;;;;;5034546;28;20042;-76
2023/05/16 03:57:31;;;;;;;14.38;8.85;;;15.30;99.90;;;;;;5046798;28;20046;-75
2023/05/16 04:00:22;;;;;;;12.00;8.25;;;15.30;99.90;;;;;;5020154;28;20042;-75
2023/05/16 04:03:10;;;;;;;13.27;8.70;;;15.20;99.90;;;;;;5021888;28;20100;-78
2023/05/16 04:06:06;;;;;;;12.57;9.00;;;15.10;99.90;;;;;;5018482;28;20099;-78
2023/05/16 04:08:53;;;;;;;17.77;8.88;;;15.30;99.90;;;;;;5033819;28;20408;-78
2023/05/16 04:11:22;;;;;;;15.88;9.25;;;15.30;99.90;;;;;;5020700;28;20050;-79
2023/05/16 04:13:49;;;;;;;12.27;9.30;;;15.40;99.90;;;;;;5020429;28;20053;-76
2023/05/16 04:16:16;;;;;;;14.45;9.02;;;15.30;99.90;;;;;;5020585;28;20042;-78
2023/05/16 04:19:00;;;;;;;14.63;9.15;;;15.30;99.90;;;;;;5027679;28;20037;-75
2023/05/16 04:22:02;;;;;;;18.38;8.90;;;15.40;99.90;;;;;;5028274;28;20232;-78
2023/05/16 04:25:10;;;;;;;13.95;8.50;;;15.40;99.90;;;;;;5037317;28;20080;-77
2023/05/16 04:27:54;;;;;;;15.88;8.18;;;15.30;99.90;;;;;;5024156;28;20061;-79
2023/05/16 04:30:41;;;;;;;15.93;8.82;;;15.30;99.90;;;;;;5040750;28;20064;-77
2023/05/16 04:33:51;;;;;;;18.23;9.30;;;15.40;99.90;;;;;;5041728;28;20049;-75
2023/05/16 04:37:15;;;;;;;15.63;9.63;;;15.50;99.90;;;;;;5044246;28;20065;-72
2023/05/16 04:40:16;;;;;;;17.38;8.90;;;15.50;99.90;;;;;;5038135;28;20125;-74
2023/05/16 04:43:08;;;;;;;15.43;10.30;;;15.40;99.90;;;;;;5042362;28;20052;-75
2023/05/16 04:46:06;;;;;;;16.92;10.38;;;15.50;99.90;;;;;;5058295;28;20555;-76
2023/05/16 04:48:43;;;;;;;16.63;10.00;;;15.70;99.90;;;;;;5015676;28;20138;-81
2023/05/16 04:51:32;;;;;;;18.30;10.48;;;15.80;99.90;;;;;;5045018;28;20093;-75
2023/05/16 04:54:58;;;;;;;22.88;10.55;;;15.80;99.90;;;;;;5042513;28;20050;-72
2023/05/16 04:57:57;;;;;;;174.20;108.18;;;15.60;99.90;;;;;;5037205;28;20038;-79
2023/05/16 05:01:10;;;;;;;21.08;16.90;;;15.80;99.90;;;;;;5033763;28;20034;-74
2023/05/16 05:07:08;;;;;;;17.50;10.60;;;15.50;99.90;;;;;;5042558;28;20069;-73
2023/05/16 05:10:30;;;;;;;20.98;14.52;;;15.80;99.90;;;;;;5045917;28;20042;-72
2023/05/16 05:13:10;;;;;;;24.20;14.88;;;15.80;99.90;;;;;;5046521;23;20053;-74
2023/05/16 05:16:10;;;;;;;46.33;26.95;;;15.70;99.90;;;;;;5053964;28;20041;-72
2023/05/16 05:23:30;;;;;;;26.70;18.30;;;16.20;99.90;;;;;;5293221;23;20045;-76
2023/05/16 05:26:01;;;;;;;19.83;12.38;;;16.30;99.90;;;;;;5067116;28;20059;-76
2023/05/16 05:31:38;;;;;;;16.23;9.48;;;16.20;99.90;;;;;;5153320;22;20033;-77
2023/05/16 05:34:44;;;;;;;15.95;9.50;;;16.20;99.90;;;;;;5046190;28;20096;-74
2023/05/16 05:37:47;;;;;;;16.05;9.95;;;16.20;99.90;;;;;;4922170;29;20377;-74
2023/05/16 05:40:30;;;;;;;19.10;10.25;;;16.20;99.90;;;;;;4948308;29;20059;-76
2023/05/16 05:43:53;;;;;;;15.75;10.45;;;16.20;99.90;;;;;;4975321;23;20080;-78
2023/05/16 05:46:24;;;;;;;84.30;47.85;;;16.30;99.90;;;;;;5023791;28;20049;-78
2023/05/16 05:49:07;;;;;;;52.42;33.90;;;16.40;99.90;;;;;;5020837;28;20050;-77
2023/05/16 05:52:20;;;;;;;20.73;11.43;;;16.40;99.90;;;;;;5046240;22;20049;-76
2023/05/16 05:55:52;;;;;;;15.25;9.00;;;16.40;99.90;;;;;;4998648;28;20040;-75
2023/05/16 05:59:09;;;;;;;14.15;8.82;;;16.30;99.90;;;;;;5329361;23;20058;31
2023/05/16 06:02:46;;;;;;;;;;;;;;;;;;;;;
2023/05/16 06:09:23;;;;;;;12.35;8.57;;;16.20;99.90;;;;;;4901541;23;20052;-78
2023/05/16 06:13:14;;;;;;;18.42;9.32;;;16.30;99.90;;;;;;4890823;29;20064;-76
2023/05/16 06:16:39;;;;;;;21.08;9.05;;;16.20;99.90;;;;;;4892039;23;20057;-80
2023/05/16 06:27:32;;;;;;;12.48;8.43;;;15.70;99.90;;;;;;4919834;29;19929;-75
2023/05/16 06:30:11;;;;;;;12.88;8.48;;;15.80;99.90;;;;;;4943793;23;20059;-76
2023/05/16 06:33:04;;;;;;;13.50;8.77;;;15.80;99.90;;;;;;4955845;29;20115;-76
2023/05/16 06:36:26;;;;;;;13.13;9.00;;;15.80;99.90;;;;;;4942969;29;20055;-76
2023/05/16 06:42:49;;;;;;;15.88;8.75;;;16.00;99.90;;;;;;4960409;23;20063;-75
2023/05/16 06:45:17;;;;;;;21.48;10.40;;;16.20;99.90;;;;;;4946671;28;20063;-76
2023/05/16 06:55:21;;;;;;;15.45;8.13;;;16.50;99.90;;;;;;4959437;29;19929;-77
2023/05/16 06:57:55;;;;;;;16.10;9.68;;;16.60;99.90;;;;;;4934690;28;20050;-77
2023/05/16 07:01:43;;;;;;;16.08;9.38;;;16.60;99.90;;;;;;4947972;29;20066;-77
2023/05/16 07:09:09;;;;;;;15.48;9.00;;;16.90;99.90;;;;;;4998253;23;20122;-77
2023/05/16 07:12:55;;;;;;;15.38;9.40;;;17.00;99.90;;;;;;4921227;29;20150;-78
2023/05/16 07:24:03;;;;;;;16.67;7.93;;;17.30;99.90;;;;;;4884346;29;20076;-76
2023/05/16 07:27:35;;;;;;;16.75;8.68;;;17.20;99.90;;;;;;5123647;23;20063;-75
2023/05/16 07:31:11;;;;;;;16.40;8.77;;;17.20;99.90;;;;;;4968032;28;20046;-77
2023/05/16 07:34:02;;;;;;;16.40;7.68;;;17.10;99.90;;;;;;4979341;28;20066;-79
2023/05/16 07:37:33;;;;;;;14.10;8.23;;;17.10;99.90;;;;;;4943884;29;20040;-79
2023/05/16 07:41:05;;;;;;;12.20;7.60;;;17.20;99.90;;;;;;4976865;28;20066;-77
2023/05/16 07:44:19;;;;;;;15.25;7.78;;;17.20;99.90;;;;;;4963823;29;20155;-79
2023/05/16 07:46:49;;;;;;;13.80;7.40;;;17.20;99.90;;;;;;5008693;28;20437;-77
2023/05/16 07:50:08;;;;;;;15.50;8.35;;;17.20;99.90;;;;;;4859739;29;20059;-76
2023/05/16 07:52:39;;;;;;;11.55;7.40;;;17.30;99.90;;;;;;4890379;29;20048;-76
2023/05/16 07:58:54;;;;;;;12.77;7.10;;;17.40;99.90;;;;;;4884133;29;19923;-78
2023/05/16 08:01:39;;;;;;;12.65;7.10;;;17.30;99.90;;;;;;4867784;29;20057;-77
2023/05/16 08:04:23;;;;;;;13.20;7.25;;;17.30;99.90;;;;;;4873823;29;20040;-76
2023/05/16 08:07:53;;;;;;;12.85;6.70;;;17.50;99.90;;;;;;4883447;29;20056;-77
2023/05/16 08:10:43;;;;;;;11.40;6.75;;;17.70;99.90;;;;;;4893505;29;20087;-76
2023/05/16 08:17:47;;;;;;;10.10;5.38;;;18.10;99.90;;;;;;4881669;29;20049;-76
2023/05/16 08:20:45;;;;;;;11.40;5.72;;;18.20;99.90;;;;;;4836503;29;20156;-75
2023/05/16 08:23:38;;;;;;;10.40;5.90;;;18.10;99.90;;;;;;4853389;29;20065;-77
2023/05/16 08:26:13;;;;;;;;;;;18.00;99.90;;;;;;4892723;28;20126;-75
2023/05/16 08:29:05;;;;;;;10.15;5.70;;;17.90;99.90;;;;;;4949843;29;19926;-78
2023/05/16 08:31:32;;;;;;;11.50;6.38;;;17.80;99.90;;;;;;4965271;28;20406;-77
2023/05/16 08:38:11;;;;;;;9.00;6.07;;;17.80;99.90;;;;;;4921370;29;20051;-78
2023/05/16 08:41:09;;;;;;;10.63;5.68;;;17.70;99.90;;;;;;4951196;28;20151;-78
2023/05/16 08:43:38;;;;;;;8.63;5.53;;;17.60;99.90;;;;;;4935087;29;20427;-79
2023/05/16 08:46:55;;;;;;;10.95;6.35;;;17.60;99.90;;;;;;4952405;28;20279;-78
2023/05/16 08:50:15;;;;;;;13.25;6.75;;;17.40;99.90;;;;;;4956087;28;20630;-79
2023/05/16 08:53:30;;;;;;;13.10;7.30;;;17.40;99.90;;;;;;4946547;29;20058;-76
2023/05/16 08:56:34;;;;;;;16.17;7.50;;;17.30;99.90;;;;;;4937602;28;20047;-77
2023/05/16 08:59:28;;;;;;;11.25;7.32;;;17.40;99.90;;;;;;4973268;28;20054;-78
2023/05/16 09:02:03;;;;;;;10.57;7.18;;;17.40;99.90;;;;;;4976814;28;20087;-79
2023/05/16 09:04:50;;;;;;;14.85;7.45;;;17.60;99.90;;;;;;4924850;29;20107;-78
2023/05/16 09:11:10;;;;;;;;;;;17.40;99.90;;;;;;4946866;29;20098;-75
2023/05/16 09:14:14;;;;;;;12.27;8.10;;;17.50;99.90;;;;;;4914712;28;19930;-74
2023/05/16 09:17:42;;;;;;;15.40;8.10;;;17.60;99.90;;;;;;4957284;29;20051;-76
2023/05/16 09:20:45;;;;;;;17.15;7.85;;;17.60;99.90;;;;;;4930197;29;20055;-75
2023/05/16 09:23:26;;;;;;;12.32;7.68;;;17.60;99.90;;;;;;4941563;28;20122;-77
2023/05/16 09:25:54;;;;;;;14.43;7.88;;;17.20;99.90;;;;;;4941113;28;20051;-75
2023/05/16 09:28:24;;;;;;;13.65;8.52;;;17.30;99.90;;;;;;4944794;29;20058;-79
2023/05/16 09:30:58;;;;;;;12.75;7.60;;;17.20;99.90;;;;;;4929838;29;20054;-75
2023/05/16 09:33:31;;;;;;;13.05;8.00;;;17.20;99.90;;;;;;4922773;29;20060;-75
2023/05/16 09:36:13;;;;;;;22.23;8.73;;;17.10;99.90;;;;;;4923536;29;20396;-75
2023/05/16 09:38:50;;;;;;;14.65;8.43;;;17.00;99.90;;;;;;4942735;23;20072;-74
2023/05/16 09:41:48;;;;;;;17.27;9.23;;;17.10;99.90;;;;;;4935255;29;20048;-75
2023/05/16 09:44:31;;;;;;;17.20;8.93;;;17.40;99.90;;;;;;4926212;29;20080;-75
2023/05/16 09:47:30;;;;;;;14.30;9.20;;;17.30;99.90;;;;;;4909109;29;20111;-76
2023/05/16 09:50:53;;;;;;;17.02;8.15;;;17.20;99.90;;;;;;4923732;29;20278;-75
2023/05/16 09:54:14;;;;;;;13.18;8.30;;;17.40;99.90;;;;;;4936004;29;20047;-74
2023/05/16 09:57:41;;;;;;;17.73;9.07;;;17.40;99.90;;;;;;4899204;29;20043;-76
2023/05/16 10:00:58;;;;;;;22.02;8.95;;;16.80;99.90;;;;;;4911082;29;20515;-76
2023/05/16 10:03:28;;;;;;;12.45;9.52;;;16.50;99.90;;;;;;4967043;28;20492;-74
2023/05/16 10:06:11;;;;;;;16.48;7.85;;;16.50;99.90;;;;;;4954133;28;20052;-75
2023/05/16 10:08:43;;;;;;;17.13;8.65;;;16.50;99.90;;;;;;4921184;29;20044;-72
2023/05/16 10:11:15;;;;;;;15.43;9.30;;;16.60;99.90;;;;;;4939355;29;20075;-74
2023/05/16 10:13:51;;;;;;;12.55;8.93;;;16.90;99.90;;;;;;4926144;29;20055;-72
2023/05/16 10:16:23;;;;;;;12.75;8.77;;;17.00;99.90;;;;;;4911729;29;20044;-72
2023/05/16 10:18:52;;;;;;;16.48;9.45;;;17.20;99.90;;;;;;4918030;29;20071;-71
2023/05/16 10:21:23;;;;;;;16.17;9.75;;;17.40;99.90;;;;;;4930756;29;20040;-74
2023/05/16 10:24:01;;;;;;;14.07;9.73;;;17.50;99.90;;;;;;4907169;29;20048;-74
2023/05/16 10:26:34;;;;;;;55.20;33.92;;;17.60;99.90;;;;;;4907241;29;20116;-74
2023/05/16 10:29:13;;;;;;;19.33;12.20;;;17.80;99.90;;;;;;4909594;29;20062;-73
2023/05/16 10:31:49;;;;;;;17.38;11.25;;;17.80;99.90;;;;;;4913725;29;20503;-73
2023/05/16 10:34:22;;;;;;;20.98;11.73;;;17.90;99.90;;;;;;4913062;29;20059;-74
2023/05/16 10:36:54;;;;;;;19.83;10.93;;;17.80;99.90;;;;;;4920870;29;20067;-75
2023/05/16 10:39:22;;;;;;;25.73;12.02;;;17.80;99.90;;;;;;4920058;29;20152;-72
2023/05/16 10:42:01;;;;;;;23.10;12.00;;;17.80;99.90;;;;;;4917334;29;20047;-78
2023/05/16 10:44:35;;;;;;;29.13;14.02;;;17.70;99.90;;;;;;4904807;29;20058;-77
2023/05/16 10:47:23;;;;;;;20.00;11.75;;;17.60;99.90;;;;;;4924052;29;20081;-77
2023/05/16 10:50:01;;;;;;;25.83;14.48;;;17.50;99.90;;;;;;4917937;29;20044;-74
2023/05/16 10:53:10;;;;;;;28.02;14.90;;;17.40;99.90;;;;;;4908668;29;20461;-76
2023/05/16 10:56:05;;;;;;;25.75;13.73;;;17.30;99.90;;;;;;4917226;29;20108;-76
2023/05/16 10:58:50;;;;;;;32.22;17.38;;;17.20;99.90;;;;;;4911337;29;20041;-75
2023/05/16 11:02:05;;;;;;;41.33;19.17;;;17.30;99.90;;;;;;4916851;29;20621;-78
2023/05/16 11:04:50;;;;;;;39.85;17.98;;;17.20;99.90;;;;;;4896401;29;20047;-74
2023/05/16 11:07:35;;;;;;;39.38;18.38;;;17.00;99.90;;;;;;4910642;29;20053;-76
2023/05/16 11:10:18;;;;;;;33.83;18.38;;;17.00;99.90;;;;;;4942315;29;20111;-75
2023/05/16 11:16:40;;;;;;;29.15;15.65;;;17.00;99.90;;;;;;4931696;29;20080;-74
2023/05/16 11:20:02;;;;;;;20.33;11.50;;;17.10;99.90;;;;;;4924940;29;20071;-74
2023/05/16 11:23:21;;;;;;;15.35;11.00;;;16.90;99.90;;;;;;4926461;29;20051;-75
2023/05/16 11:26:20;;;;;;;19.85;10.73;;;16.70;99.90;;;;;;4912600;29;20048;-74
2023/05/16 11:29:07;;;;;;;22.52;12.73;;;17.40;99.90;;;;;;4925571;29;20052;-77
2023/05/16 11:31:59;;;;;;;19.92;11.85;;;17.70;99.90;;;;;;4911581;29;20055;-79
2023/05/16 11:35:14;;;;;;;20.35;11.82;;;17.80;99.90;;;;;;4939495;29;20120;-75
2023/05/16 11:38:07;;;;;;;19.83;11.85;;;17.80;99.90;;;;;;4925514;29;20067;-76
2023/05/16 11:40:43;;;;;;;21.70;11.73;;;18.10;99.90;;;;;;4904568;29;20052;-76
2023/05/16 11:43:24;;;;;;;18.73;10.55;;;18.60;99.90;;;;;;4893061;29;20044;-71
2023/05/16 11:45:57;;;;;;;19.10;11.23;;;18.80;99.90;;;;;;4900579;29;20071;-77
2023/05/16 11:48:39;;;;;;;18.67;10.95;;;19.40;99.90;;;;;;4916668;29;20123;-70
2023/05/16 11:51:13;;;;;;;17.13;9.73;;;19.80;99.90;;;;;;4909787;29;20152;-73
2023/05/16 11:53:45;;;;;;;15.70;8.05;;;20.00;99.90;;;;;;4918575;29;20040;-74
2023/05/16 11:56:24;;;;;;;12.38;7.60;;;19.90;99.90;;;;;;4937010;29;20043;-74
2023/05/16 11:58:52;;;;;;;12.13;7.78;;;19.50;99.90;;;;;;4916290;29;20111;-70
2023/05/16 12:01:30;;;;;;;11.52;7.70;;;19.70;99.90;;;;;;4922557;29;20055;-71
2023/05/16 12:04:00;;;;;;;20.63;9.27;;;19.50;99.90;;;;;;4918489;29;20497;-73
2023/05/16 12:10:19;;;;;;;11.77;7.22;;;19.30;99.90;;;;;;4944364;29;20088;-79
2023/05/16 12:13:02;;;;;;;16.05;8.52;;;19.10;99.90;;;;;;4922257;29;20056;-78
2023/05/16 12:15:32;;;;;;;;;;;18.90;99.90;;;;;;4897696;29;20040;-78
2023/05/16 12:18:55;;;;;;;12.68;7.82;;;18.90;99.90;;;;;;4931525;29;19927;-75
2023/05/16 12:22:00;;;;;;;16.65;7.32;;;18.80;99.90;;;;;;4896191;29;20037;-75
2023/05/16 12:24:43;;;;;;;14.77;7.20;;;18.80;99.90;;;;;;4907466;29;20141;-74
2023/05/16 12:27:55;;;;;;;15.20;7.28;;;19.10;99.90;;;;;;4926094;29;20088;-80
2023/05/16 12:30:29;;;;;;;14.40;7.38;;;19.20;99.90;;;;;;4899863;29;20408;-72
2023/05/16 12:33:08;;;;;;;17.27;7.15;;;19.50;99.90;;;;;;4896367;29;20469;-72
2023/05/16 12:36:15;;;;;;;11.30;5.73;;;19.50;99.90;;;;;;4914236;29;20040;-73
2023/05/16 12:38:54;;;;;;;11.20;6.57;;;19.30;99.90;;;;;;4899045;29;20059;-72
2023/05/16 12:41:22;;;;;;;14.93;7.47;;;19.20;99.90;;;;;;4891269;29;20064;-73
2023/05/16 12:44:13;;;;;;;10.40;6.60;;;19.10;99.90;;;;;;4915662;29;20108;-73
2023/05/16 12:47:13;;;;;;;10.55;6.10;;;18.90;99.90;;;;;;4887467;29;20140;-73
2023/05/16 12:50:03;;;;;;;8.70;5.80;;;19.00;99.90;;;;;;4907145;29;20050;-75
2023/05/16 12:52:59;;;;;;;12.45;6.15;;;18.90;99.90;;;;;;4900625;29;20048;-72
2023/05/16 12:55:31;;;;;;;14.10;6.88;;;18.70;99.90;;;;;;4908089;29;20055;-72
2023/05/16 12:58:06;;;;;;;13.80;6.97;;;18.70;99.90;;;;;;4907114;29;20088;-73
2023/05/16 13:00:39;;;;;;;13.00;6.85;;;18.60;99.90;;;;;;4925949;29;20040;-75
2023/05/16 13:03:07;;;;;;;7.60;5.32;;;18.60;99.90;;;;;;4919865;29;20059;-72
2023/05/16 13:05:36;;;;;;;14.55;6.88;;;18.60;99.90;;;;;;4898473;29;20063;-73
2023/05/16 13:08:06;;;;;;;12.95;7.15;;;18.60;99.90;;;;;;4929049;29;20044;-75
2023/05/16 13:10:57;;;;;;;15.88;6.63;;;18.70;99.90;;;;;;4933660;29;20044;-75
2023/05/16 13:17:22;;;;;;;10.55;6.30;;;18.90;99.90;;;;;;4917125;29;20086;-73
2023/05/16 13:20:31;;;;;;;13.18;7.05;;;19.00;99.90;;;;;;5013263;23;20055;-73
2023/05/16 13:22:59;;;;;;;13.00;6.57;;;19.50;99.90;;;;;;4981773;28;20055;-74
2023/05/16 13:25:32;;;;;;;13.27;6.93;;;20.00;99.90;;;;;;4950449;28;20062;-79
2023/05/16 13:28:25;;;;;;;10.90;6.28;;;19.90;99.90;;;;;;4958445;28;20205;-70
2023/05/16 13:30:52;;;;;;;13.02;6.40;;;19.90;99.90;;;;;;4947627;28;20050;-71
2023/05/16 13:33:21;;;;;;;9.45;4.80;;;19.80;99.90;;;;;;4994999;28;20038;-80
2023/05/16 13:35:54;;;;;;;9.40;5.22;;;20.00;99.90;;;;;;4986999;28;20043;-73
2023/05/16 13:41:39;;;;;;;11.18;5.70;;;20.40;99.90;;;;;;4976296;28;20047;-76
2023/05/16 13:44:21;;;;;;;9.70;5.60;;;20.50;99.90;;;;;;4979277;28;20055;-75
2023/05/16 13:46:51;;;;;;;9.68;4.85;;;20.80;99.90;;;;;;4986222;28;20070;-76
2023/05/16 13:49:37;;;;;;;10.48;5.38;;;20.90;99.90;;;;;;4961758;28;20074;-78
2023/05/16 13:52:42;;;;;;;16.70;5.53;;;21.50;99.90;;;;;;4980899;28;20070;-78
2023/05/16 13:55:28;;;;;;;10.00;5.65;;;22.80;99.90;;;;;;4974726;28;20038;-75
2023/05/16 13:58:26;;;;;;;12.90;5.25;;;22.60;99.90;;;;;;4970785;28;20047;-75
2023/05/16 14:02:02;;;;;;;9.23;4.80;;;21.80;99.90;;;;;;4979256;28;20047;-75
2023/05/16 14:04:29;;;;;;;9.05;5.15;;;21.90;99.90;;;;;;4992869;28;20043;-79
2023/05/16 14:06:59;;;;;;;10.35;4.80;;;22.30;99.90;;;;;;4992533;28;20026;-82
2023/05/16 14:09:38;;;;;;;8.68;5.10;;;22.50;99.90;;;;;;4979761;28;20046;-76
2023/05/16 14:12:42;;;;;;;11.10;5.28;;;22.70;99.90;;;;;;4961005;28;20086;-81
2023/05/16 14:15:43;;;;;;;10.35;5.45;;;21.60;99.90;;;;;;4951183;28;20045;-83
2023/05/16 14:18:25;;;;;;;14.45;5.72;;;21.20;99.90;;;;;;4959191;28;20055;-77
2023/05/16 14:20:55;;;;;;;9.55;5.13;;;21.20;99.90;;;;;;4957941;28;20106;-73
2023/05/16 14:23:35;;;;;;;9.68;4.78;;;20.90;99.90;;;;;;4952415;29;20090;-79
2023/05/16 14:26:10;;;;;;;8.35;4.53;;;20.50;99.90;;;;;;4935921;28;20047;-76
2023/05/16 14:29:18;;;;;;;11.18;6.13;;;20.10;99.90;;;;;;4957037;28;20027;-75
2023/05/16 14:32:17;;;;;;;11.77;5.30;;;20.00;99.90;;;;;;4965462;28;20058;-78
2023/05/16 14:35:15;;;;;;;12.15;5.20;;;19.90;99.90;;;;;;4941282;29;20054;-73
2023/05/16 14:37:52;;;;;;;6.65;4.93;;;19.90;99.90;;;;;;4970944;28;20046;-76
2023/05/16 14:40:33;;;;;;;10.30;4.80;;;19.90;99.90;;;;;;4965183;29;20069;-79
2023/05/16 14:43:07;;;;;;;9.27;5.00;;;19.80;99.90;;;;;;4942437;28;20521;-78
2023/05/16 14:45:47;;;;;;;13.23;5.22;;;19.90;99.90;;;;;;4944707;28;20054;-82
2023/05/16 14:48:22;;;;;;;7.82;4.95;;;19.90;99.90;;;;;;4963047;28;20075;-76
2023/05/16 14:51:14;;;;;;;9.10;5.35;;;19.70;99.90;;;;;;4974440;28;20093;-80
2023/05/16 14:53:58;;;;;;;13.18;5.00;;;19.60;99.90;;;;;;4963246;28;20072;-74
2023/05/16 14:56:58;;;;;;;11.05;4.85;;;19.40;99.90;;;;;;4954971;28;20055;-74
2023/05/16 14:59:48;;;;;;;12.05;5.45;;;19.40;99.90;;;;;;4983698;28;20067;-78
2023/05/16 15:02:17;;;;;;;7.63;4.95;;;19.50;99.90;;;;;;4967171;28;20081;-75
2023/05/16 15:04:49;;;;;;;8.38;5.95;;;19.60;99.90;;;;;;4931061;29;20098;-76
2023/05/16 15:07:49;;;;;;;9.05;4.63;;;19.70;99.90;;;;;;4927190;28;20110;-75
2023/05/16 15:10:19;;;;;;;9.77;5.32;;;19.90;99.90;;;;;;4936583;29;20051;-82
2023/05/16 15:12:56;;;;;;;10.63;5.05;;;19.90;99.90;;;;;;4938446;29;20066;-73
2023/05/16 15:15:34;;;;;;;9.15;4.78;;;19.80;99.90;;;;;;4936388;29;20071;-74
2023/05/16 15:18:19;;;;;;;10.70;4.60;;;19.90;99.90;;;;;;4970030;28;20043;-73
2023/05/16 15:21:03;;;;;;;9.68;5.35;;;20.20;99.90;;;;;;4934201;29;20070;-80
2023/05/16 15:23:38;;;;;;;11.10;5.05;;;20.20;99.90;;;;;;4969244;28;20052;-79
2023/05/16 15:26:31;;;;;;;11.60;5.82;;;20.30;99.90;;;;;;4936552;29;20055;-73
2023/05/16 15:29:12;;;;;;;12.13;5.30;;;20.40;99.90;;;;;;4936606;29;20059;-80
2023/05/16 15:31:45;;;;;;;9.15;4.68;;;20.50;99.90;;;;;;4933675;29;20059;-76
2023/05/16 15:34:38;;;;;;;10.85;4.75;;;20.90;99.90;;;;;;4953603;29;20051;-75
2023/05/16 15:37:17;;;;;;;11.27;5.03;;;21.90;99.90;;;;;;4954599;29;20047;-74
2023/05/16 15:40:25;;;;;;;9.70;4.20;;;22.80;99.90;;;;;;4974314;28;20039;-77
2023/05/16 15:42:59;;;;;;;9.23;4.18;;;22.50;99.90;;;;;;4945614;29;20055;-73
2023/05/16 15:45:41;;;;;;;9.50;5.03;;;21.00;99.90;;;;;;4948554;29;20060;-76
2023/05/16 15:48:43;;;;;;;10.18;4.85;;;20.30;99.90;;;;;;4950257;28;20087;-85
2023/05/16 15:51:28;;;;;;;14.95;5.07;;;19.80;99.90;;;;;;4937342;29;20609;-79
2023/05/16 15:54:17;;;;;;;8.40;4.32;;;19.80;99.90;;;;;;4955464;29;20062;-79
2023/05/16 16:01:56;;;;;;;9.35;4.63;;;19.80;99.90;;;;;;5035876;23;20075;-75
2023/05/16 16:04:52;;;;;;;11.40;4.63;;;19.80;99.90;;;;;;4963069;28;20035;-74
2023/05/16 16:07:44;;;;;;;18.48;10.75;;;20.00;99.90;;;;;;4966216;28;20062;-75
2023/05/16 16:10:25;;;;;;;16.67;9.23;;;19.80;99.90;;;;;;4957698;28;20043;-77
2023/05/16 16:13:10;;;;;;;19.55;8.65;;;19.70;99.90;;;;;;4960149;28;20063;-77
2023/05/16 16:16:09;;;;;;;74.28;44.00;;;19.60;99.90;;;;;;4951370;29;20047;-72
2023/05/16 16:18:50;;;;;;;66.57;42.47;;;19.60;99.90;;;;;;4937181;29;20052;-76